sensor_id;sensor_type;location;lat;lon;timestamp;P1;durP1;ratioP1;P2;durP2;ratioP2
20306;SDS011;10312;52.434;13.206;2023-09-08T09:58:24;6.85;;;4.55;;
20306;SDS011;10312;52.434;13.206;2023-09-08T10:00:52;5.40;;;4.30;;
20306;SDS011;10312;52.434;13.206;2023-09-08T10:03:21;6.28;;;4.28;;
20306;SDS011;10312;52.434;13.206;2023-09-08T10:05:48;6.43;;;4.30;;
20306;SDS011;10312;52.434;13.206;2023-09-08T10:08:16;9.40;;;4.32;;
20306;SDS011;10312;52.434;13.206;2023-09-08T10:10:44;8.20;;;4.35;;
20306;SDS011;10312;52.434;13.206;2023-09-08T10:13:13;5.97;;;4.10;;
20306;SDS011;10312;52.434;13.206;2023-09-08T10:15:41;5.53;;;4.45;;
20306;SDS011;10312;52.434;13.206;2023-09-08T10:18:08;6.82;;;4.80;;
20306;SDS011;10312;52.434;13.206;2023-09-08T10:20:37;6.55;;;4.03;;
20306;SDS011;10312;52.434;13.206;2023-09-08T10:23:12;11.50;;;4.10;;
20306;SDS011;10312;52.434;13.206;2023-09-08T10:25:43;7.50;;;4.47;;
20306;SDS011;10312;52.434;13.206;2023-09-08T10:28:12;8.13;;;4.32;;
20306;SDS011;10312;52.434;13.206;2023-09-08T10:30:40;7.32;;;4.20;;
20306;SDS011;10312;52.434;13.206;2023-09-08T10:33:07;6.10;;;4.18;;
20306;SDS011;10312;52.434;13.206;2023-09-08T10:35:38;6.38;;;4.03;;
20306;SDS011;10312;52.434;13.206;2023-09-08T10:38:22;5.00;;;3.85;;
20306;SDS011;10312;52.434;13.206;2023-09-08T10:40:53;7.40;;;4.40;;
20306;SDS011;10312;52.434;13.206;2023-09-08T10:43:20;6.43;;;4.40;;
20306;SDS011;10312;52.434;13.206;2023-09-08T10:45:47;6.18;;;3.83;;
20306;SDS011;10312;52.434;13.206;2023-09-08T10:48:14;7.50;;;3.83;;
20306;SDS011;10312;52.434;13.206;2023-09-08T10:50:42;5.80;;;3.92;;
20306;SDS011;10312;52.434;13.206;2023-09-08T10:53:16;6.53;;;4.00;;
20306;SDS011;10312;52.434;13.206;2023-09-08T10:55:47;8.02;;;3.75;;
20306;SDS011;10312;52.434;13.206;2023-09-08T10:58:38;5.00;;;3.75;;
20306;SDS011;10312;52.434;13.206;2023-09-08T11:01:07;6.25;;;3.55;;
20306;SDS011;10312;52.434;13.206;2023-09-08T11:06:05;6.32;;;3.70;;
20306;SDS011;10312;52.434;13.206;2023-09-08T11:08:32;5.22;;;4.00;;
20306;SDS011;10312;52.434;13.206;2023-09-08T11:11:00;6.00;;;3.75;;
20306;SDS011;10312;52.434;13.206;2023-09-08T11:13:27;5.32;;;3.67;;
20306;SDS011;10312;52.434;13.206;2023-09-08T11:15:57;6.03;;;3.78;;
20306;SDS011;10312;52.434;13.206;2023-09-08T11:18:30;8.45;;;3.38;;
20306;SDS011;10312;52.434;13.206;2023-09-08T11:21:00;6.68;;;3.40;;
20306;SDS011;10312;52.434;13.206;2023-09-08T11:23:28;8.27;;;3.75;;
20306;SDS011;10312;52.434;13.206;2023-09-08T11:25:55;5.65;;;3.40;;
20306;SDS011;10312;52.434;13.206;2023-09-08T11:28:23;7.95;;;3.67;;
20306;SDS011;10312;52.434;13.206;2023-09-08T11:30:51;7.43;;;3.75;;
20306;SDS011;10312;52.434;13.206;2023-09-08T11:33:19;6.25;;;3.83;;
20306;SDS011;10312;52.434;13.206;2023-09-08T11:35:52;10.75;;;3.65;;
20306;SDS011;10312;52.434;13.206;2023-09-08T11:38:25;5.78;;;3.92;;
20306;SDS011;10312;52.434;13.206;2023-09-08T11:40:56;6.60;;;3.70;;
20306;SDS011;10312;52.434;13.206;2023-09-08T11:43:27;5.20;;;3.22;;
20306;SDS011;10312;52.434;13.206;2023-09-08T11:45:55;4.80;;;3.40;;
20306;SDS011;10312;52.434;13.206;2023-09-08T11:48:23;4.63;;;3.30;;
20306;SDS011;10312;52.434;13.206;2023-09-08T11:50:54;5.25;;;3.70;;
20306;SDS011;10312;52.434;13.206;2023-09-08T11:53:21;4.75;;;3.05;;
20306;SDS011;10312;52.434;13.206;2023-09-08T11:55:49;5.65;;;3.33;;
20306;SDS011;10312;52.434;13.206;2023-09-08T11:58:18;8.93;;;3.25;;
20306;SDS011;10312;52.434;13.206;2023-09-08T12:00:45;6.78;;;3.53;;
20306;SDS011;10312;52.434;13.206;2023-09-08T12:03:15;5.32;;;3.40;;
20306;SDS011;10312;52.434;13.206;2023-09-08T12:05:50;4.93;;;2.78;;
20306;SDS011;10312;52.434;13.206;2023-09-08T12:08:18;4.88;;;3.38;;
20306;SDS011;10312;52.434;13.206;2023-09-08T12:10:45;5.47;;;3.30;;
20306;SDS011;10312;52.434;13.206;2023-09-08T12:13:12;6.50;;;3.28;;
20306;SDS011;10312;52.434;13.206;2023-09-08T12:15:41;8.73;;;3.63;;
20306;SDS011;10312;52.434;13.206;2023-09-08T12:18:11;5.53;;;3.65;;
20306;SDS011;10312;52.434;13.206;2023-09-08T12:20:41;5.20;;;3.47;;
20306;SDS011;10312;52.434;13.206;2023-09-08T12:23:17;4.38;;;3.30;;
20306;SDS011;10312;52.434;13.206;2023-09-08T12:25:51;6.40;;;3.63;;
20306;SDS011;10312;52.434;13.206;2023-09-08T12:28:21;8.52;;;3.08;;
20306;SDS011;10312;52.434;13.206;2023-09-08T12:30:51;5.65;;;3.17;;
20306;SDS011;10312;52.434;13.206;2023-09-08T12:33:22;5.30;;;3.22;;
20306;SDS011;10312;52.434;13.206;2023-09-08T12:35:51;4.72;;;3.35;;
20306;SDS011;10312;52.434;13.206;2023-09-08T12:38:21;6.57;;;3.33;;
20306;SDS011;10312;52.434;13.206;2023-09-08T12:40:51;4.22;;;3.13;;
20306;SDS011;10312;52.434;13.206;2023-09-08T12:43:21;6.13;;;3.30;;
